Mariane — LZG2356 — position and weather

sailwx.info

Track history (hours):
 
Tides and Currents Weather Stations Pressure Air Temp Water Temp Dewpoint Dewpoint Depression Visibility Wind Speed Wind Dir Waves Ship Positions

Mariane

Last reported at 2018-Jan-18 11:52 UTC. Time now 2018-Jan-20 05:22 UTC.
Position N 48°08' E 016°53'.

; draft 2.3 m.

MMSI: 207072356.

Date/timePositionNaut miles runAvg speedWind from/ knotsBaromVisibWave heightAir tempDewpointWater temp
2018-Jan-18 11:52N 48°08' E 016°53'1 1.4
2018-Jan-18 11:30N 48°08' E 016°54'1 1.8
2018-Jan-18 11:00N 48°09' E 016°55'1 1.7
2018-Jan-18 10:25N 48°09' E 016°56'1 1.3
2018-Jan-18 09:53N 48°10' E 016°57'1 1.6
2018-Jan-18 09:28N 48°10' E 016°57'1 1.5
2018-Jan-18 08:49N 48°10' E 016°59'1 2.0
2018-Jan-18 08:30N 48°10' E 016°60'1 1.8
2018-Jan-18 07:49N 48°09' E 017°01'1 1.7
2018-Jan-18 07:30N 48°09' E 017°01'1 1.5
2018-Jan-18 06:59N 48°08' E 017°03'1 1.9
2018-Jan-18 06:30N 48°09' E 017°04'1 2.1
2018-Jan-18 06:00N 48°08' E 017°05'1 2.5
2018-Jan-18 05:30N 48°08' E 017°07'1 2.5
2018-Jan-18 05:00N 48°08' E 017°09'2 3.2
2018-Jan-18 04:30N 48°06' E 017°08'1 2.9
2018-Jan-18 04:00N 48°05' E 017°09'0 0.0
2018-Jan-18 03:30N 48°05' E 017°09'0 0.0
2018-Jan-18 03:00N 48°05' E 017°09'0 0.0
2018-Jan-18 02:30N 48°05' E 017°09'0 0.0
2018-Jan-18 02:00N 48°05' E 017°09'0 0.0
2018-Jan-18 01:30N 48°05' E 017°09'0 0.0
2018-Jan-18 01:00N 48°05' E 017°09'0 0.0
2018-Jan-18 00:00N 48°05' E 017°09'0 0.0
2018-Jan-17 23:57N 48°05' E 017°09'  
2018-Jan-12 10:55N 44°46' E 021°31'0 0.0
2018-Jan-12 10:30N 44°46' E 021°31'0 0.0
2018-Jan-12 10:00N 44°46' E 021°31'0 0.0
2018-Jan-12 09:31N 44°46' E 021°31'1 2.4
2018-Jan-12 09:01N 44°46' E 021°33'3 4.8
2018-Jan-12 08:26N 44°45' E 021°36'2 5.4
2018-Jan-12 08:00N 44°43' E 021°38'3 5.7
2018-Jan-12 07:30N 44°41' E 021°40'16 4.9
2018-Jan-12 04:19N 44°36' E 022°01'2 5.8
2018-Jan-12 04:00N 44°34' E 022°02'3 5.2
2018-Jan-12 03:30N 44°32' E 022°04'0 0.3
2018-Jan-12 03:00N 44°32' E 022°04'0 0.0
2018-Jan-12 02:30N 44°32' E 022°04'0 0.0
2018-Jan-12 02:00N 44°32' E 022°04'0 0.0
2018-Jan-12 01:30N 44°32' E 022°04'0 0.0
2018-Jan-12 01:00N 44°32' E 022°04'0 0.0
2018-Jan-12 00:30N 44°32' E 022°04'0 0.0
2018-Jan-12 00:00N 44°32' E 022°04'0 0.0
2018-Jan-11 23:30N 44°32' E 022°04'0 0.0
2018-Jan-11 23:00N 44°32' E 022°04'0 0.0
2018-Jan-11 22:30N 44°32' E 022°04'0 0.0
2018-Jan-11 22:00N 44°32' E 022°04'0 0.4
2018-Jan-11 21:00N 44°32' E 022°04'3 5.6
2018-Jan-11 20:31N 44°29' E 022°06'3 5.4
2018-Jan-11 19:52N 44°29' E 022°11'  
Track history (hours):
 
Tides and Currents Weather Stations Pressure Air Temp Water Temp Dewpoint Dewpoint Depression Visibility Wind Speed Wind Dir Waves Ship Positions

Mariane

Last reported at 2018-Jan-18 11:52 UTC. Time now 2018-Jan-20 05:22 UTC.
Position N 48°08' E 016°53'.

; draft 2.3 m.

MMSI: 207072356.

Date/timePositionNaut miles runAvg speedWind from/ knotsBaromVisibWave heightAir tempDewpointWater temp
2018-Jan-18 11:52N 48°08' E 016°53'1 1.4
2018-Jan-18 11:30N 48°08' E 016°54'1 1.8
2018-Jan-18 11:00N 48°09' E 016°55'1 1.7
2018-Jan-18 10:25N 48°09' E 016°56'1 1.3
2018-Jan-18 09:53N 48°10' E 016°57'1 1.6
2018-Jan-18 09:28N 48°10' E 016°57'1 1.5
2018-Jan-18 08:49N 48°10' E 016°59'1 2.0
2018-Jan-18 08:30N 48°10' E 016°60'1 1.8
2018-Jan-18 07:49N 48°09' E 017°01'1 1.7
2018-Jan-18 07:30N 48°09' E 017°01'1 1.5
2018-Jan-18 06:59N 48°08' E 017°03'1 1.9
2018-Jan-18 06:30N 48°09' E 017°04'1 2.1
2018-Jan-18 06:00N 48°08' E 017°05'1 2.5
2018-Jan-18 05:30N 48°08' E 017°07'1 2.5
2018-Jan-18 05:00N 48°08' E 017°09'2 3.2
2018-Jan-18 04:30N 48°06' E 017°08'1 2.9
2018-Jan-18 04:00N 48°05' E 017°09'0 0.0
2018-Jan-18 03:30N 48°05' E 017°09'0 0.0
2018-Jan-18 03:00N 48°05' E 017°09'0 0.0
2018-Jan-18 02:30N 48°05' E 017°09'0 0.0
2018-Jan-18 02:00N 48°05' E 017°09'0 0.0
2018-Jan-18 01:30N 48°05' E 017°09'0 0.0
2018-Jan-18 01:00N 48°05' E 017°09'0 0.0
2018-Jan-18 00:00N 48°05' E 017°09'0 0.0
2018-Jan-17 23:57N 48°05' E 017°09'  
2018-Jan-12 10:55N 44°46' E 021°31'0 0.0
2018-Jan-12 10:30N 44°46' E 021°31'0 0.0
2018-Jan-12 10:00N 44°46' E 021°31'0 0.0
2018-Jan-12 09:31N 44°46' E 021°31'1 2.4
2018-Jan-12 09:01N 44°46' E 021°33'3 4.8
2018-Jan-12 08:26N 44°45' E 021°36'2 5.4
2018-Jan-12 08:00N 44°43' E 021°38'3 5.7
2018-Jan-12 07:30N 44°41' E 021°40'16 4.9
2018-Jan-12 04:19N 44°36' E 022°01'2 5.8
2018-Jan-12 04:00N 44°34' E 022°02'3 5.2
2018-Jan-12 03:30N 44°32' E 022°04'0 0.3
2018-Jan-12 03:00N 44°32' E 022°04'0 0.0
2018-Jan-12 02:30N 44°32' E 022°04'0 0.0
2018-Jan-12 02:00N 44°32' E 022°04'0 0.0
2018-Jan-12 01:30N 44°32' E 022°04'0 0.0
2018-Jan-12 01:00N 44°32' E 022°04'0 0.0
2018-Jan-12 00:30N 44°32' E 022°04'0 0.0
2018-Jan-12 00:00N 44°32' E 022°04'0 0.0
2018-Jan-11 23:30N 44°32' E 022°04'0 0.0
2018-Jan-11 23:00N 44°32' E 022°04'0 0.0
2018-Jan-11 22:30N 44°32' E 022°04'0 0.0
2018-Jan-11 22:00N 44°32' E 022°04'0 0.4
2018-Jan-11 21:00N 44°32' E 022°04'3 5.6
2018-Jan-11 20:31N 44°29' E 022°06'3 5.4
2018-Jan-11 19:52N 44°29' E 022°11'  

Dump ship's entire track history